sensor_id;sensor_type;location;lat;lon;timestamp;pressure;altitude;pressure_sealevel;temperature;humidity
50484;BME280;36409;52.168;20.878;2023-07-30T00:00:02;99569.00;;;18.32;70.25
50484;BME280;36409;52.168;20.878;2023-07-30T00:02:59;99577.00;;;18.31;70.70
50484;BME280;36409;52.168;20.878;2023-07-30T00:05:28;99584.19;;;18.29;70.57
50484;BME280;36409;52.168;20.878;2023-07-30T00:07:58;99577.20;;;18.28;70.78
50484;BME280;36409;52.168;20.878;2023-07-30T00:10:26;99579.91;;;18.26;70.41
50484;BME280;36409;52.168;20.878;2023-07-30T00:12:55;99574.63;;;18.26;71.17
50484;BME280;36409;52.168;20.878;2023-07-30T00:15:24;99573.03;;;18.24;70.74
50484;BME280;36409;52.168;20.878;2023-07-30T00:17:53;99580.95;;;18.24;70.70
50484;BME280;36409;52.168;20.878;2023-07-30T00:20:22;99587.17;;;18.23;71.02
50484;BME280;36409;52.168;20.878;2023-07-30T00:22:51;99583.59;;;18.24;71.16
50484;BME280;36409;52.168;20.878;2023-07-30T00:25:19;99595.96;;;18.23;71.28
50484;BME280;36409;52.168;20.878;2023-07-30T00:27:48;99592.45;;;18.23;71.34
50484;BME280;36409;52.168;20.878;2023-07-30T00:30:17;99607.46;;;18.22;71.34
50484;BME280;36409;52.168;20.878;2023-07-30T00:32:46;99598.77;;;18.20;71.37
50484;BME280;36409;52.168;20.878;2023-07-30T00:35:15;99598.84;;;18.18;71.57
50484;BME280;36409;52.168;20.878;2023-07-30T00:37:44;99595.53;;;18.15;71.43
50484;BME280;36409;52.168;20.878;2023-07-30T00:40:13;99600.05;;;18.13;71.58
50484;BME280;36409;52.168;20.878;2023-07-30T00:42:42;99603.72;;;18.10;71.86
50484;BME280;36409;52.168;20.878;2023-07-30T00:45:11;99593.27;;;18.09;71.62
50484;BME280;36409;52.168;20.878;2023-07-30T00:47:40;99592.49;;;18.06;72.13
50484;BME280;36409;52.168;20.878;2023-07-30T00:50:11;99592.59;;;18.05;71.83
50484;BME280;36409;52.168;20.878;2023-07-30T00:52:41;99596.07;;;18.05;71.94
50484;BME280;36409;52.168;20.878;2023-07-30T00:55:11;99591.89;;;18.01;72.05
50484;BME280;36409;52.168;20.878;2023-07-30T00:57:41;99590.22;;;18.00;71.65
50484;BME280;36409;52.168;20.878;2023-07-30T01:00:12;99607.00;;;17.99;72.26
50484;BME280;36409;52.168;20.878;2023-07-30T01:02:43;99607.94;;;17.98;72.10
50484;BME280;36409;52.168;20.878;2023-07-30T01:05:12;99617.56;;;17.99;72.69
50484;BME280;36409;52.168;20.878;2023-07-30T01:07:41;99599.08;;;17.99;72.49
50484;BME280;36409;52.168;20.878;2023-07-30T01:10:10;99610.57;;;17.98;72.48
50484;BME280;36409;52.168;20.878;2023-07-30T01:12:39;99613.28;;;17.97;72.16
50484;BME280;36409;52.168;20.878;2023-07-30T01:15:10;99611.58;;;17.96;72.44
50484;BME280;36409;52.168;20.878;2023-07-30T01:17:39;99615.98;;;17.95;72.53
50484;BME280;36409;52.168;20.878;2023-07-30T01:20:11;99615.16;;;17.95;72.63
50484;BME280;36409;52.168;20.878;2023-07-30T01:22:40;99615.16;;;17.95;72.37
50484;BME280;36409;52.168;20.878;2023-07-30T01:25:10;99615.16;;;17.95;72.62
50484;BME280;36409;52.168;20.878;2023-07-30T01:27:43;99614.28;;;17.94;72.63
50484;BME280;36409;52.168;20.878;2023-07-30T01:30:18;99620.50;;;17.93;72.63
50484;BME280;36409;52.168;20.878;2023-07-30T01:32:52;99612.77;;;17.90;72.87
50484;BME280;36409;52.168;20.878;2023-07-30T01:35:24;99605.79;;;17.89;72.75
50484;BME280;36409;52.168;20.878;2023-07-30T01:37:54;99619.92;;;17.88;72.88
50484;BME280;36409;52.168;20.878;2023-07-30T01:40:24;99616.52;;;17.86;72.90
50484;BME280;36409;52.168;20.878;2023-07-30T01:42:53;99619.31;;;17.83;73.01
50484;BME280;36409;52.168;20.878;2023-07-30T01:45:22;99607.98;;;17.81;73.11
50484;BME280;36409;52.168;20.878;2023-07-30T01:47:51;99616.84;;;17.80;73.02
50484;BME280;36409;52.168;20.878;2023-07-30T01:50:20;99616.94;;;17.78;72.94
50484;BME280;36409;52.168;20.878;2023-07-30T01:52:49;99617.04;;;17.77;73.00
50484;BME280;36409;52.168;20.878;2023-07-30T01:55:18;99617.97;;;17.75;73.48
50484;BME280;36409;52.168;20.878;2023-07-30T01:57:46;99624.18;;;17.74;73.31
50484;BME280;36409;52.168;20.878;2023-07-30T02:00:16;99629.45;;;17.74;73.15
50484;BME280;36409;52.168;20.878;2023-07-30T02:02:45;99631.23;;;17.74;73.40
50484;BME280;36409;52.168;20.878;2023-07-30T02:05:14;99633.87;;;17.74;73.67
50484;BME280;36409;52.168;20.878;2023-07-30T02:07:44;99635.67;;;17.73;73.60
50484;BME280;36409;52.168;20.878;2023-07-30T02:10:13;99637.54;;;17.71;73.47
50484;BME280;36409;52.168;20.878;2023-07-30T02:12:42;99635.93;;;17.69;73.35
50484;BME280;36409;52.168;20.878;2023-07-30T02:15:11;99635.93;;;17.69;73.54
50484;BME280;36409;52.168;20.878;2023-07-30T02:17:40;99637.70;;;17.68;73.72
50484;BME280;36409;52.168;20.878;2023-07-30T02:20:11;99638.67;;;17.67;73.53
50484;BME280;36409;52.168;20.878;2023-07-30T02:22:40;99645.81;;;17.65;73.58
50484;BME280;36409;52.168;20.878;2023-07-30T02:25:09;99649.28;;;17.66;73.65
50484;BME280;36409;52.168;20.878;2023-07-30T02:27:38;99644.94;;;17.65;73.69
50484;BME280;36409;52.168;20.878;2023-07-30T02:30:08;99654.66;;;17.64;73.92
50484;BME280;36409;52.168;20.878;2023-07-30T02:32:37;99653.79;;;17.64;73.60
50484;BME280;36409;52.168;20.878;2023-07-30T02:35:07;99652.08;;;17.63;73.97
50484;BME280;36409;52.168;20.878;2023-07-30T02:37:36;99648.70;;;17.60;73.75
50484;BME280;36409;52.168;20.878;2023-07-30T02:40:06;99660.09;;;17.61;74.21
50484;BME280;36409;52.168;20.878;2023-07-30T02:42:35;99657.45;;;17.61;73.88
50484;BME280;36409;52.168;20.878;2023-07-30T02:45:06;99660.09;;;17.61;73.90
50484;BME280;36409;52.168;20.878;2023-07-30T02:47:34;99655.69;;;17.62;74.18
50484;BME280;36409;52.168;20.878;2023-07-30T02:50:04;99655.69;;;17.62;73.96
50484;BME280;36409;52.168;20.878;2023-07-30T02:52:34;99653.89;;;17.62;74.25
50484;BME280;36409;52.168;20.878;2023-07-30T02:55:03;99661.80;;;17.62;74.23
50484;BME280;36409;52.168;20.878;2023-07-30T02:57:32;99659.06;;;17.64;74.10
50484;BME280;36409;52.168;20.878;2023-07-30T03:00:01;99655.69;;;17.62;74.25
50484;BME280;36409;52.168;20.878;2023-07-30T03:02:32;99654.72;;;17.63;74.29
50484;BME280;36409;52.168;20.878;2023-07-30T03:05:01;99653.89;;;17.62;74.30
50484;BME280;36409;52.168;20.878;2023-07-30T03:07:31;99660.00;;;17.63;74.30
50484;BME280;36409;52.168;20.878;2023-07-30T03:10:00;99666.14;;;17.63;74.45
50484;BME280;36409;52.168;20.878;2023-07-30T03:12:29;99662.64;;;17.63;74.73
50484;BME280;36409;52.168;20.878;2023-07-30T03:14:58;99665.37;;;17.61;74.66
50484;BME280;36409;52.168;20.878;2023-07-30T03:17:27;99670.65;;;17.61;75.16
50484;BME280;36409;52.168;20.878;2023-07-30T03:19:58;99668.01;;;17.61;75.00
50484;BME280;36409;52.168;20.878;2023-07-30T03:22:27;99668.88;;;17.62;74.78
50484;BME280;36409;52.168;20.878;2023-07-30T03:24:58;99670.65;;;17.61;74.82
50484;BME280;36409;52.168;20.878;2023-07-30T03:27:27;99669.81;;;17.60;74.83
50484;BME280;36409;52.168;20.878;2023-07-30T03:29:57;99669.81;;;17.60;74.99
50484;BME280;36409;52.168;20.878;2023-07-30T03:32:26;99668.88;;;17.62;74.99
50484;BME280;36409;52.168;20.878;2023-07-30T03:34:57;99666.23;;;17.62;74.99
50484;BME280;36409;52.168;20.878;2023-07-30T03:37:25;99674.22;;;17.60;74.79
50484;BME280;36409;52.168;20.878;2023-07-30T03:39:55;99677.88;;;17.57;74.83
50484;BME280;36409;52.168;20.878;2023-07-30T03:42:24;99676.95;;;17.58;75.12
50484;BME280;36409;52.168;20.878;2023-07-30T03:44:52;99681.20;;;17.61;75.21
50484;BME280;36409;52.168;20.878;2023-07-30T03:47:21;99675.83;;;17.63;75.13
50484;BME280;36409;52.168;20.878;2023-07-30T03:49:50;99671.42;;;17.63;75.34
50484;BME280;36409;52.168;20.878;2023-07-30T03:52:19;99673.97;;;17.65;75.33
50484;BME280;36409;52.168;20.878;2023-07-30T03:54:51;99670.33;;;17.67;75.07
50484;BME280;36409;52.168;20.878;2023-07-30T03:57:20;99671.07;;;17.69;75.02
50484;BME280;36409;52.168;20.878;2023-07-30T03:59:49;99681.37;;;17.74;75.22
50484;BME280;36409;52.168;20.878;2023-07-30T04:02:18;99691.86;;;17.75;75.21
50484;BME280;36409;52.168;20.878;2023-07-30T04:04:47;99695.27;;;17.78;75.36
50484;BME280;36409;52.168;20.878;2023-07-30T04:07:17;99695.27;;;17.78;75.87
50484;BME280;36409;52.168;20.878;2023-07-30T04:09:46;99689.22;;;17.75;75.50
50484;BME280;36409;52.168;20.878;2023-07-30T04:12:15;99690.00;;;17.78;75.43
50484;BME280;36409;52.168;20.878;2023-07-30T04:14:44;99691.70;;;17.79;75.57
50484;BME280;36409;52.168;20.878;2023-07-30T04:17:13;99697.72;;;17.81;75.54
50484;BME280;36409;52.168;20.878;2023-07-30T04:19:42;99709.98;;;17.82;75.42
50484;BME280;36409;52.168;20.878;2023-07-30T04:22:11;99715.27;;;17.82;75.60
50484;BME280;36409;52.168;20.878;2023-07-30T04:24:40;99718.77;;;17.82;75.72
50484;BME280;36409;52.168;20.878;2023-07-30T04:27:11;99732.81;;;17.83;75.56
50484;BME280;36409;52.168;20.878;2023-07-30T04:29:39;99730.94;;;17.85;75.69
50484;BME280;36409;52.168;20.878;2023-07-30T04:32:09;99727.37;;;17.86;75.65
50484;BME280;36409;52.168;20.878;2023-07-30T04:34:38;99732.55;;;17.87;75.64
50484;BME280;36409;52.168;20.878;2023-07-30T04:37:07;99743.05;;;17.89;75.89
50484;BME280;36409;52.168;20.878;2023-07-30T04:39:37;99738.29;;;17.96;75.62
50484;BME280;36409;52.168;20.878;2023-07-30T04:42:06;99740.61;;;18.02;76.04
50484;BME280;36409;52.168;20.878;2023-07-30T04:44:35;99750.56;;;18.13;75.90
50484;BME280;36409;52.168;20.878;2023-07-30T04:47:12;99749.20;;;18.21;75.97
50484;BME280;36409;52.168;20.878;2023-07-30T04:49:41;99742.73;;;18.27;76.14
50484;BME280;36409;52.168;20.878;2023-07-30T04:52:11;99748.78;;;18.29;75.78
50484;BME280;36409;52.168;20.878;2023-07-30T04:54:39;99747.84;;;18.30;75.55
50484;BME280;36409;52.168;20.878;2023-07-30T04:57:08;99759.19;;;18.32;75.82
50484;BME280;36409;52.168;20.878;2023-07-30T04:59:37;99761.62;;;18.35;75.93
50484;BME280;36409;52.168;20.878;2023-07-30T05:02:06;99760.62;;;18.38;75.79
50484;BME280;36409;52.168;20.878;2023-07-30T05:04:35;99755.15;;;18.41;75.96
50484;BME280;36409;52.168;20.878;2023-07-30T05:07:05;99760.36;;;18.43;75.78
50484;BME280;36409;52.168;20.878;2023-07-30T05:09:34;99762.84;;;18.46;75.78
50484;BME280;36409;52.168;20.878;2023-07-30T05:12:04;99765.38;;;18.47;75.40
50484;BME280;36409;52.168;20.878;2023-07-30T05:14:33;99767.66;;;18.53;75.70
50484;BME280;36409;52.168;20.878;2023-07-30T05:17:02;99777.53;;;18.66;75.59
50484;BME280;36409;52.168;20.878;2023-07-30T05:19:32;99779.08;;;18.70;75.51
50484;BME280;36409;52.168;20.878;2023-07-30T05:22:01;99783.92;;;18.78;75.57
50484;BME280;36409;52.168;20.878;2023-07-30T05:24:30;99786.47;;;18.79;75.61
50484;BME280;36409;52.168;20.878;2023-07-30T05:26:59;99791.86;;;18.78;76.06
50484;BME280;36409;52.168;20.878;2023-07-30T05:29:28;99789.28;;;18.76;75.54
50484;BME280;36409;52.168;20.878;2023-07-30T05:31:58;99788.94;;;18.82;75.54
50484;BME280;36409;52.168;20.878;2023-07-30T05:34:27;99798.31;;;18.88;75.64
50484;BME280;36409;52.168;20.878;2023-07-30T05:36:56;99804.03;;;18.96;75.29
50484;BME280;36409;52.168;20.878;2023-07-30T05:39:25;99797.43;;;19.04;75.63
50484;BME280;36409;52.168;20.878;2023-07-30T05:41:54;99807.02;;;19.21;75.30
50484;BME280;36409;52.168;20.878;2023-07-30T05:44:23;99813.34;;;19.18;74.93
50484;BME280;36409;52.168;20.878;2023-07-30T05:46:52;99809.77;;;19.19;74.80
50484;BME280;36409;52.168;20.878;2023-07-30T05:49:21;99815.20;;;19.47;74.50
50484;BME280;36409;52.168;20.878;2023-07-30T05:51:50;99816.83;;;19.64;74.43
50484;BME280;36409;52.168;20.878;2023-07-30T05:54:18;99805.61;;;19.89;74.20
50484;BME280;36409;52.168;20.878;2023-07-30T05:56:47;99809.48;;;20.12;73.52
50484;BME280;36409;52.168;20.878;2023-07-30T05:59:16;99820.16;;;20.11;73.54
50484;BME280;36409;52.168;20.878;2023-07-30T06:01:49;99814.78;;;20.12;73.93
50484;BME280;36409;52.168;20.878;2023-07-30T06:04:18;99816.56;;;20.12;73.92
50484;BME280;36409;52.168;20.878;2023-07-30T06:06:47;99823.27;;;20.17;73.62
50484;BME280;36409;52.168;20.878;2023-07-30T06:09:16;99810.89;;;20.18;73.02
50484;BME280;36409;52.168;20.878;2023-07-30T06:11:45;99817.88;;;21.16;72.35
50484;BME280;36409;52.168;20.878;2023-07-30T06:14:13;99823.52;;;21.24;71.60
50484;BME280;36409;52.168;20.878;2023-07-30T06:16:42;99829.34;;;21.29;71.71
50484;BME280;36409;52.168;20.878;2023-07-30T06:19:12;99833.38;;;21.35;71.60
50484;BME280;36409;52.168;20.878;2023-07-30T06:21:41;99831.64;;;21.74;71.02
50484;BME280;36409;52.168;20.878;2023-07-30T06:24:10;99829.38;;;21.55;71.33
50484;BME280;36409;52.168;20.878;2023-07-30T06:26:39;99832.66;;;21.45;71.43
50484;BME280;36409;52.168;20.878;2023-07-30T06:29:08;99831.91;;;21.31;71.08
50484;BME280;36409;52.168;20.878;2023-07-30T06:31:37;99838.35;;;21.13;71.12
50484;BME280;36409;52.168;20.878;2023-07-30T06:34:06;99839.50;;;21.09;70.48
50484;BME280;36409;52.168;20.878;2023-07-30T06:36:35;99839.16;;;21.01;70.70
50484;BME280;36409;52.168;20.878;2023-07-30T06:39:04;99834.67;;;20.89;70.98
50484;BME280;36409;52.168;20.878;2023-07-30T06:41:33;99832.21;;;20.86;70.32
50484;BME280;36409;52.168;20.878;2023-07-30T06:44:03;99825.51;;;20.80;70.26
50484;BME280;36409;52.168;20.878;2023-07-30T06:46:32;99827.66;;;20.88;70.22
50484;BME280;36409;52.168;20.878;2023-07-30T06:49:01;99828.56;;;21.01;70.27
50484;BME280;36409;52.168;20.878;2023-07-30T06:51:32;99843.72;;;20.99;70.31
50484;BME280;36409;52.168;20.878;2023-07-30T06:54:01;99835.95;;;20.96;69.88
50484;BME280;36409;52.168;20.878;2023-07-30T06:56:31;99836.82;;;20.96;70.27
50484;BME280;36409;52.168;20.878;2023-07-30T06:58:59;99831.71;;;20.93;69.88
50484;BME280;36409;52.168;20.878;2023-07-30T07:01:28;99833.22;;;20.97;69.34
50484;BME280;36409;52.168;20.878;2023-07-30T07:03:58;99840.00;;;21.02;69.61
50484;BME280;36409;52.168;20.878;2023-07-30T07:06:32;99836.34;;;21.17;69.48
50484;BME280;36409;52.168;20.878;2023-07-30T07:09:01;99838.38;;;21.39;69.45
50484;BME280;36409;52.168;20.878;2023-07-30T07:11:32;99837.80;;;21.62;69.66
50484;BME280;36409;52.168;20.878;2023-07-30T07:14:01;99833.76;;;21.69;69.16
50484;BME280;36409;52.168;20.878;2023-07-30T07:16:34;99843.85;;;21.77;68.93
50484;BME280;36409;52.168;20.878;2023-07-30T07:19:03;99850.12;;;21.75;69.01
50484;BME280;36409;52.168;20.878;2023-07-30T07:21:32;99850.55;;;21.82;68.53
50484;BME280;36409;52.168;20.878;2023-07-30T07:24:01;99855.86;;;21.82;68.47
50484;BME280;36409;52.168;20.878;2023-07-30T07:26:32;99845.14;;;21.84;68.52
50484;BME280;36409;52.168;20.878;2023-07-30T07:29:01;99852.65;;;22.16;68.53
50484;BME280;36409;52.168;20.878;2023-07-30T07:31:32;99855.80;;;22.34;68.11
50484;BME280;36409;52.168;20.878;2023-07-30T07:34:03;99853.03;;;22.35;67.42
50484;BME280;36409;52.168;20.878;2023-07-30T07:36:31;99850.50;;;22.21;67.49
50484;BME280;36409;52.168;20.878;2023-07-30T07:39:00;99851.78;;;22.28;67.47
50484;BME280;36409;52.168;20.878;2023-07-30T07:41:31;99853.03;;;22.35;67.65
50484;BME280;36409;52.168;20.878;2023-07-30T07:44:00;99843.35;;;22.34;67.39
50484;BME280;36409;52.168;20.878;2023-07-30T07:46:30;99841.15;;;22.28;67.24
50484;BME280;36409;52.168;20.878;2023-07-30T07:48:58;99841.15;;;22.28;66.91
50484;BME280;36409;52.168;20.878;2023-07-30T07:51:32;99837.95;;;22.23;66.64
50484;BME280;36409;52.168;20.878;2023-07-30T07:54:01;99849.04;;;22.17;66.40
50484;BME280;36409;52.168;20.878;2023-07-30T07:56:31;99848.50;;;22.12;66.59
50484;BME280;36409;52.168;20.878;2023-07-30T07:59:00;99843.52;;;22.07;66.47
50484;BME280;36409;52.168;20.878;2023-07-30T08:01:30;99846.80;;;22.11;66.64
50484;BME280;36409;52.168;20.878;2023-07-30T08:03:59;99850.08;;;22.27;66.39
50484;BME280;36409;52.168;20.878;2023-07-30T08:06:38;99857.83;;;22.43;66.45
50484;BME280;36409;52.168;20.878;2023-07-30T08:09:07;99842.56;;;22.58;66.37
50484;BME280;36409;52.168;20.878;2023-07-30T08:11:36;99840.19;;;22.66;66.10
50484;BME280;36409;52.168;20.878;2023-07-30T08:14:05;99854.41;;;22.78;66.18
50484;BME280;36409;52.168;20.878;2023-07-30T08:16:34;99848.01;;;22.81;66.10
50484;BME280;36409;52.168;20.878;2023-07-30T08:19:03;99857.75;;;22.93;66.25
50484;BME280;36409;52.168;20.878;2023-07-30T08:21:32;99844.71;;;23.02;65.80
50484;BME280;36409;52.168;20.878;2023-07-30T08:24:01;99844.75;;;23.13;65.24
50484;BME280;36409;52.168;20.878;2023-07-30T08:26:31;99850.89;;;23.26;65.41
50484;BME280;36409;52.168;20.878;2023-07-30T08:29:00;99849.19;;;23.25;64.86
50484;BME280;36409;52.168;20.878;2023-07-30T08:31:29;99847.13;;;23.29;64.84
50484;BME280;36409;52.168;20.878;2023-07-30T08:33:59;99853.45;;;23.39;64.81
50484;BME280;36409;52.168;20.878;2023-07-30T08:36:28;99854.70;;;23.47;64.71
50484;BME280;36409;52.168;20.878;2023-07-30T08:39:00;99853.48;;;23.51;64.78
50484;BME280;36409;52.168;20.878;2023-07-30T08:41:33;99848.86;;;23.41;64.28
50484;BME280;36409;52.168;20.878;2023-07-30T08:44:02;99854.41;;;23.38;63.91
50484;BME280;36409;52.168;20.878;2023-07-30T08:46:32;99857.46;;;23.45;63.92
50484;BME280;36409;52.168;20.878;2023-07-30T08:49:01;99855.18;;;23.52;63.89
50484;BME280;36409;52.168;20.878;2023-07-30T08:51:33;99857.20;;;23.37;63.89
50484;BME280;36409;52.168;20.878;2023-07-30T08:54:04;99856.50;;;23.46;64.04
50484;BME280;36409;52.168;20.878;2023-07-30T08:56:34;99853.02;;;23.57;63.90
50484;BME280;36409;52.168;20.878;2023-07-30T08:59:04;99855.34;;;23.73;63.52
50484;BME280;36409;52.168;20.878;2023-07-30T09:01:38;99852.10;;;23.92;63.86
50484;BME280;36409;52.168;20.878;2023-07-30T09:04:08;99855.39;;;24.18;63.52
50484;BME280;36409;52.168;20.878;2023-07-30T09:06:37;99862.41;;;24.42;63.49
50484;BME280;36409;52.168;20.878;2023-07-30T09:09:07;99861.89;;;24.48;62.82
50484;BME280;36409;52.168;20.878;2023-07-30T09:11:38;99863.33;;;24.64;62.76
50484;BME280;36409;52.168;20.878;2023-07-30T09:14:07;99870.84;;;24.70;62.01
50484;BME280;36409;52.168;20.878;2023-07-30T09:16:37;99871.64;;;24.93;62.43
50484;BME280;36409;52.168;20.878;2023-07-30T09:19:07;99866.38;;;25.03;62.20
50484;BME280;36409;52.168;20.878;2023-07-30T09:21:36;99871.42;;;25.18;62.00
50484;BME280;36409;52.168;20.878;2023-07-30T09:24:07;99875.00;;;25.28;61.32
50484;BME280;36409;52.168;20.878;2023-07-30T09:26:47;99872.63;;;25.13;61.15
50484;BME280;36409;52.168;20.878;2023-07-30T09:29:16;99873.06;;;25.30;60.78
50484;BME280;36409;52.168;20.878;2023-07-30T09:31:48;99869.66;;;25.28;60.97
50484;BME280;36409;52.168;20.878;2023-07-30T09:34:19;99874.34;;;25.47;60.86
50484;BME280;36409;52.168;20.878;2023-07-30T09:36:51;99870.07;;;25.87;60.44
50484;BME280;36409;52.168;20.878;2023-07-30T09:39:22;99871.70;;;26.09;60.61
50484;BME280;36409;52.168;20.878;2023-07-30T09:41:52;99870.33;;;26.46;60.39
50484;BME280;36409;52.168;20.878;2023-07-30T09:44:22;99874.34;;;26.81;59.85
50484;BME280;36409;52.168;20.878;2023-07-30T09:46:51;99880.02;;;27.07;59.35
50484;BME280;36409;52.168;20.878;2023-07-30T09:49:20;99872.67;;;27.09;59.08
50484;BME280;36409;52.168;20.878;2023-07-30T09:51:51;99867.16;;;26.91;58.73
50484;BME280;36409;52.168;20.878;2023-07-30T09:54:20;99869.59;;;27.04;58.72
50484;BME280;36409;52.168;20.878;2023-07-30T09:56:50;99860.83;;;27.41;58.64
50484;BME280;36409;52.168;20.878;2023-07-30T09:59:19;99860.28;;;27.28;58.25
50484;BME280;36409;52.168;20.878;2023-07-30T10:01:49;99856.89;;;27.26;57.95
50484;BME280;36409;52.168;20.878;2023-07-30T10:04:20;99859.97;;;27.41;57.47
50484;BME280;36409;52.168;20.878;2023-07-30T10:06:52;99862.51;;;27.62;57.40
50484;BME280;36409;52.168;20.878;2023-07-30T10:09:25;99850.00;;;27.90;57.40
50484;BME280;36409;52.168;20.878;2023-07-30T10:11:59;99851.48;;;28.41;57.15
50484;BME280;36409;52.168;20.878;2023-07-30T10:14:33;99852.11;;;28.53;56.71
50484;BME280;36409;52.168;20.878;2023-07-30T10:17:02;99850.02;;;28.74;56.34
50484;BME280;36409;52.168;20.878;2023-07-30T10:19:32;99852.96;;;28.71;55.65
50484;BME280;36409;52.168;20.878;2023-07-30T10:22:20;99844.84;;;28.63;55.20
50484;BME280;36409;52.168;20.878;2023-07-30T10:24:58;99843.36;;;28.96;55.28
50484;BME280;36409;52.168;20.878;2023-07-30T10:27:35;99834.65;;;29.39;55.19
50484;BME280;36409;52.168;20.878;2023-07-30T10:30:13;99831.34;;;29.71;54.67
50484;BME280;36409;52.168;20.878;2023-07-30T10:32:58;99840.80;;;29.57;53.89
50484;BME280;36409;52.168;20.878;2023-07-30T10:35:45;99836.25;;;29.32;53.48
50484;BME280;36409;52.168;20.878;2023-07-30T10:38:16;99838.81;;;28.97;53.66
50484;BME280;36409;52.168;20.878;2023-07-30T10:41:02;99842.23;;;28.53;52.89
50484;BME280;36409;52.168;20.878;2023-07-30T10:43:35;99841.80;;;27.92;52.65
50484;BME280;36409;52.168;20.878;2023-07-30T10:46:04;99844.48;;;27.44;52.63
50484;BME280;36409;52.168;20.878;2023-07-30T10:48:35;99830.66;;;27.39;53.00
50484;BME280;36409;52.168;20.878;2023-07-30T10:51:05;99827.57;;;27.44;53.12
50484;BME280;36409;52.168;20.878;2023-07-30T10:53:35;99835.11;;;27.68;53.46
50484;BME280;36409;52.168;20.878;2023-07-30T10:56:05;99832.33;;;27.98;53.52
50484;BME280;36409;52.168;20.878;2023-07-30T10:58:36;99828.67;;;28.27;53.50
50484;BME280;36409;52.168;20.878;2023-07-30T11:01:06;99826.67;;;28.57;53.38
50484;BME280;36409;52.168;20.878;2023-07-30T11:03:35;99822.70;;;28.79;53.14
50484;BME280;36409;52.168;20.878;2023-07-30T11:06:07;99826.02;;;28.91;52.94
50484;BME280;36409;52.168;20.878;2023-07-30T11:08:38;99824.67;;;29.13;52.67
50484;BME280;36409;52.168;20.878;2023-07-30T11:11:08;99828.45;;;29.38;52.35
50484;BME280;36409;52.168;20.878;2023-07-30T11:13:38;99820.73;;;29.43;51.34
50484;BME280;36409;52.168;20.878;2023-07-30T11:16:08;99815.54;;;29.24;51.33
50484;BME280;36409;52.168;20.878;2023-07-30T11:18:39;99818.28;;;29.32;51.16
50484;BME280;36409;52.168;20.878;2023-07-30T11:21:09;99814.02;;;29.21;51.16
50484;BME280;36409;52.168;20.878;2023-07-30T11:23:39;99811.41;;;29.11;50.80
50484;BME280;36409;52.168;20.878;2023-07-30T11:26:14;99812.77;;;29.34;51.17
50484;BME280;36409;52.168;20.878;2023-07-30T11:28:44;99812.10;;;29.58;50.99
50484;BME280;36409;52.168;20.878;2023-07-30T11:31:15;99816.62;;;29.57;50.03
50484;BME280;36409;52.168;20.878;2023-07-30T11:33:46;99812.52;;;29.71;50.12
50484;BME280;36409;52.168;20.878;2023-07-30T11:36:16;99804.74;;;29.95;50.18
50484;BME280;36409;52.168;20.878;2023-07-30T11:38:47;99803.48;;;30.24;50.04
50484;BME280;36409;52.168;20.878;2023-07-30T11:41:17;99800.36;;;30.45;49.78
50484;BME280;36409;52.168;20.878;2023-07-30T11:43:46;99800.61;;;30.76;49.68
50484;BME280;36409;52.168;20.878;2023-07-30T11:46:16;99805.16;;;30.84;49.52
50484;BME280;36409;52.168;20.878;2023-07-30T11:48:46;99800.39;;;30.53;48.97
50484;BME280;36409;52.168;20.878;2023-07-30T11:51:28;99808.85;;;30.15;48.67
50484;BME280;36409;52.168;20.878;2023-07-30T11:53:59;99807.58;;;29.93;48.65
50484;BME280;36409;52.168;20.878;2023-07-30T11:56:32;99807.48;;;29.77;48.71
50484;BME280;36409;52.168;20.878;2023-07-30T11:59:04;99810.67;;;29.46;48.29
50484;BME280;36409;52.168;20.878;2023-07-30T12:01:35;99819.32;;;28.95;47.91
50484;BME280;36409;52.168;20.878;2023-07-30T12:04:06;99812.79;;;28.61;48.33
50484;BME280;36409;52.168;20.878;2023-07-30T12:06:42;99813.06;;;28.40;48.50
50484;BME280;36409;52.168;20.878;2023-07-30T12:09:13;99802.52;;;28.57;48.88
50484;BME280;36409;52.168;20.878;2023-07-30T12:11:47;99813.13;;;28.76;49.05
50484;BME280;36409;52.168;20.878;2023-07-30T12:14:16;99809.64;;;28.66;48.89
50484;BME280;36409;52.168;20.878;2023-07-30T12:16:45;99811.33;;;28.49;48.82
50484;BME280;36409;52.168;20.878;2023-07-30T12:19:14;99819.05;;;28.34;48.78
50484;BME280;36409;52.168;20.878;2023-07-30T12:21:43;99816.94;;;28.00;49.07
50484;BME280;36409;52.168;20.878;2023-07-30T12:24:12;99808.58;;;27.75;48.97
50484;BME280;36409;52.168;20.878;2023-07-30T12:26:41;99808.59;;;27.65;49.02
50484;BME280;36409;52.168;20.878;2023-07-30T12:29:10;99811.22;;;27.47;48.91
50484;BME280;36409;52.168;20.878;2023-07-30T12:31:39;99808.40;;;27.29;49.20
50484;BME280;36409;52.168;20.878;2023-07-30T12:34:08;99809.92;;;27.41;49.59
50484;BME280;36409;52.168;20.878;2023-07-30T12:36:37;99804.93;;;27.66;49.73
50484;BME280;36409;52.168;20.878;2023-07-30T12:39:06;99804.27;;;27.92;49.87
50484;BME280;36409;52.168;20.878;2023-07-30T12:41:36;99797.84;;;28.13;49.87
50484;BME280;36409;52.168;20.878;2023-07-30T12:44:05;99805.88;;;28.41;49.97
50484;BME280;36409;52.168;20.878;2023-07-30T12:46:35;99798.05;;;28.65;49.69
50484;BME280;36409;52.168;20.878;2023-07-30T12:49:04;99799.70;;;28.76;49.45
50484;BME280;36409;52.168;20.878;2023-07-30T12:51:34;99798.45;;;28.71;49.06
50484;BME280;36409;52.168;20.878;2023-07-30T12:54:02;99795.93;;;28.69;48.99
50484;BME280;36409;52.168;20.878;2023-07-30T12:56:31;99799.44;;;28.70;49.12
50484;BME280;36409;52.168;20.878;2023-07-30T12:59:04;99806.59;;;28.79;49.03
50484;BME280;36409;52.168;20.878;2023-07-30T13:01:33;99799.23;;;28.81;48.86
50484;BME280;36409;52.168;20.878;2023-07-30T13:04:02;99789.13;;;28.75;48.57